createdAt,value
2023-01-03T00:00:07.641Z,79.30
2023-01-03T00:02:35.953Z,79.40
2023-01-03T00:05:04.264Z,79.50
2023-01-03T00:07:35.060Z,79.60
2023-01-03T00:10:04.517Z,79.60
2023-01-03T00:12:32.742Z,79.60
2023-01-03T00:15:01.462Z,79.60
2023-01-03T00:17:31.014Z,79.60
2023-01-03T00:19:59.139Z,79.60
2023-01-03T00:22:27.340Z,79.50
2023-01-03T00:24:55.539Z,79.60
2023-01-03T00:27:23.667Z,79.50
2023-01-03T00:29:51.841Z,79.60
2023-01-03T00:32:20.394Z,79.60
2023-01-03T00:34:49.953Z,79.60
2023-01-03T00:37:18.148Z,79.60
2023-01-03T00:39:46.271Z,79.70
2023-01-03T00:42:14.573Z,79.80
2023-01-03T00:44:42.793Z,79.80
2023-01-03T00:47:10.933Z,79.90
2023-01-03T00:49:39.154Z,80.10
2023-01-03T00:52:08.703Z,80.20
2023-01-03T00:54:37.361Z,80.20
2023-01-03T00:57:05.540Z,80.10
2023-01-03T00:59:33.604Z,80.10
2023-01-03T01:02:01.831Z,80.20
2023-01-03T01:04:32.831Z,80.20
2023-01-03T01:07:03.131Z,80.30
2023-01-03T01:09:34.953Z,80.40
2023-01-03T01:12:03.186Z,80.40
2023-01-03T01:14:33.559Z,80.40
2023-01-03T01:17:03.139Z,80.70
2023-01-03T01:19:32.852Z,80.80
2023-01-03T01:22:01.499Z,80.70
2023-01-03T01:24:29.646Z,80.70
2023-01-03T01:26:59.411Z,80.80
2023-01-03T01:29:27.694Z,80.80
2023-01-03T01:31:55.933Z,80.70
2023-01-03T01:34:24.105Z,80.70
2023-01-03T01:36:52.373Z,80.80
2023-01-03T01:39:21.973Z,80.80
2023-01-03T01:42:18.262Z,80.80
2023-01-03T01:44:53.211Z,80.90
2023-01-03T01:47:32.180Z,80.90
2023-01-03T01:50:06.816Z,80.80
2023-01-03T01:52:37.878Z,80.80
2023-01-03T01:55:09.307Z,80.90
2023-01-03T01:57:39.374Z,80.80
2023-01-03T02:00:11.427Z,80.90
2023-01-03T02:02:39.748Z,81.00
2023-01-03T02:05:10.935Z,81.10
2023-01-03T02:07:40.040Z,81.00
2023-01-03T02:10:10.480Z,81.10
2023-01-03T02:13:01.402Z,81.10
2023-01-03T02:15:51.650Z,81.00
2023-01-03T02:18:42.647Z,81.10
2023-01-03T02:21:53.774Z,81.20
2023-01-03T02:25:00.733Z,81.30
2023-01-03T02:27:59.119Z,81.40
2023-01-03T02:30:38.691Z,81.50
2023-01-03T02:33:23.914Z,81.40
2023-01-03T02:36:01.056Z,81.40
2023-01-03T02:38:39.344Z,81.40
2023-01-03T02:41:13.901Z,81.40
2023-01-03T02:43:47.980Z,81.40
2023-01-03T02:46:23.606Z,81.40
2023-01-03T02:48:56.819Z,81.40
2023-01-03T02:51:30.362Z,81.50
2023-01-03T02:54:01.005Z,81.50
2023-01-03T02:56:33.638Z,81.50
2023-01-03T02:59:06.751Z,81.50
2023-01-03T03:01:37.427Z,81.60
2023-01-03T03:04:06.911Z,81.60
2023-01-03T03:06:42.531Z,81.70
2023-01-03T03:09:10.720Z,81.60
2023-01-03T03:12:00.616Z,81.60
2023-01-03T03:14:36.059Z,81.60
2023-01-03T03:17:08.013Z,81.60
2023-01-03T03:19:55.635Z,81.60
2023-01-03T03:22:48.614Z,81.60
2023-01-03T03:25:23.211Z,81.60
2023-01-03T03:28:11.550Z,81.60
2023-01-03T03:30:42.873Z,81.70
2023-01-03T03:33:15.176Z,81.70
2023-01-03T03:35:52.892Z,81.80
2023-01-03T03:38:25.633Z,81.80
2023-01-03T03:41:17.311Z,82.00
2023-01-03T03:44:10.558Z,81.90
2023-01-03T03:46:52.470Z,81.90
2023-01-03T03:49:41.801Z,82.00
2023-01-03T03:52:15.322Z,82.00
2023-01-03T03:54:48.289Z,82.00
2023-01-03T03:57:20.534Z,82.00
2023-01-03T03:59:52.673Z,82.00
2023-01-03T04:02:22.297Z,82.00
2023-01-03T04:04:57.993Z,82.00
2023-01-03T04:07:28.779Z,82.00
2023-01-03T04:09:57.381Z,82.00
2023-01-03T04:12:25.650Z,81.90
2023-01-03T04:14:53.880Z,81.90
2023-01-03T04:17:22.078Z,82.00
2023-01-03T04:19:51.939Z,82.10
2023-01-03T04:22:20.074Z,82.10
2023-01-03T04:24:48.256Z,82.10
2023-01-03T04:27:16.365Z,82.00
2023-01-03T04:29:44.609Z,82.10
2023-01-03T04:32:12.851Z,82.10
2023-01-03T04:34:41.114Z,82.10
2023-01-03T04:37:10.714Z,82.10
2023-01-03T04:39:38.861Z,82.10
2023-01-03T04:42:27.819Z,82.20
2023-01-03T04:44:55.003Z,82.20
2023-01-03T04:47:23.138Z,82.30
2023-01-03T04:49:51.258Z,82.30
2023-01-03T04:52:20.759Z,82.30
2023-01-03T04:54:48.887Z,82.30
2023-01-03T04:57:17.536Z,82.40
2023-01-03T04:59:45.659Z,82.30
2023-01-03T05:02:13.873Z,82.40
2023-01-03T05:04:42.152Z,82.40
2023-01-03T05:07:10.343Z,82.40
2023-01-03T05:09:39.877Z,82.40
2023-01-03T05:12:08.413Z,82.40
2023-01-03T05:14:37.284Z,82.50
2023-01-03T05:17:06.980Z,82.50
2023-01-03T05:20:02.001Z,82.50
2023-01-03T05:22:48.431Z,82.60
2023-01-03T05:25:41.074Z,82.50
2023-01-03T05:28:17.528Z,82.50
2023-01-03T05:30:49.555Z,82.50
2023-01-03T05:33:26.315Z,82.50
2023-01-03T05:35:54.471Z,82.50
2023-01-03T05:38:26.571Z,82.50
2023-01-03T05:41:01.425Z,82.50
2023-01-03T05:43:35.122Z,82.60
2023-01-03T05:46:06.790Z,82.60
2023-01-03T05:48:35.206Z,82.70
2023-01-03T05:51:12.619Z,82.70
2023-01-03T05:53:49.484Z,82.80
2023-01-03T05:56:20.060Z,82.80
2023-01-03T05:58:52.867Z,82.80
2023-01-03T06:01:29.362Z,82.80
2023-01-03T06:04:01.877Z,82.90
2023-01-03T06:06:32.694Z,82.90
2023-01-03T06:09:04.468Z,83.00
2023-01-03T06:11:42.637Z,83.00
2023-01-03T06:14:14.415Z,83.00
2023-01-03T06:17:00.475Z,83.00
2023-01-03T06:19:30.385Z,83.00
2023-01-03T06:22:05.588Z,83.10
2023-01-03T06:24:38.317Z,83.00
2023-01-03T06:27:14.155Z,83.00
2023-01-03T06:29:45.612Z,83.10
2023-01-03T06:32:17.013Z,83.10
2023-01-03T06:34:47.436Z,83.20
2023-01-03T06:37:17.996Z,83.20
2023-01-03T06:39:49.905Z,83.20
2023-01-03T06:42:47.539Z,83.20
2023-01-03T06:45:34.266Z,83.30
2023-01-03T06:48:24.211Z,83.20
2023-01-03T06:51:12.951Z,83.30
2023-01-03T06:53:58.604Z,83.40
2023-01-03T06:56:27.571Z,83.30
2023-01-03T06:59:11.436Z,83.30
2023-01-03T07:01:45.501Z,83.30
2023-01-03T07:04:16.188Z,83.30
2023-01-03T07:06:53.656Z,83.20
2023-01-03T07:09:23.821Z,83.10
2023-01-03T07:12:22.411Z,83.20
2023-01-03T07:15:09.195Z,83.20
2023-01-03T07:17:37.323Z,83.20
2023-01-03T07:20:08.030Z,83.30
2023-01-03T07:22:37.519Z,83.30
2023-01-03T07:25:13.661Z,83.30
2023-01-03T07:27:44.410Z,83.20
2023-01-03T07:30:18.776Z,83.20
2023-01-03T07:32:48.369Z,83.20
2023-01-03T07:35:16.929Z,83.30
2023-01-03T07:37:45.311Z,83.20
2023-01-03T07:40:17.056Z,83.30
2023-01-03T07:43:05.397Z,83.40
2023-01-03T07:45:50.914Z,83.30
2023-01-03T07:48:24.964Z,83.30
2023-01-03T07:51:01.182Z,83.20
2023-01-03T07:53:30.305Z,83.10
2023-01-03T07:56:13.005Z,83.20
2023-01-03T07:58:46.245Z,83.10
2023-01-03T08:01:24.805Z,83.10
2023-01-03T08:03:54.685Z,83.00
2023-01-03T08:06:27.828Z,83.10
2023-01-03T08:09:17.381Z,82.90
2023-01-03T08:12:07.044Z,83.00
2023-01-03T08:14:36.542Z,83.00
2023-01-03T08:17:14.615Z,83.10
2023-01-03T08:19:45.922Z,82.90
2023-01-03T08:22:15.561Z,83.00
2023-01-03T08:24:45.089Z,83.00
2023-01-03T08:27:16.618Z,83.10
2023-01-03T08:29:50.289Z,83.00
2023-01-03T08:32:26.490Z,83.00
2023-01-03T08:34:56.837Z,82.80
2023-01-03T08:37:25.351Z,82.90
2023-01-03T08:40:00.992Z,82.90
2023-01-03T08:42:34.105Z,82.90
2023-01-03T08:45:09.866Z,82.90
2023-01-03T08:47:42.009Z,83.00
2023-01-03T08:50:15.461Z,83.00
2023-01-03T08:52:44.862Z,82.90
2023-01-03T08:55:17.021Z,82.80
2023-01-03T08:57:48.970Z,82.90
2023-01-03T09:00:23.568Z,82.90
2023-01-03T09:02:55.036Z,82.90
2023-01-03T09:05:29.852Z,82.90
2023-01-03T09:07:58.721Z,82.90
2023-01-03T09:10:28.262Z,82.90
2023-01-03T09:13:02.541Z,82.80
2023-01-03T09:15:36.945Z,82.60
2023-01-03T09:18:11.480Z,82.60
2023-01-03T09:20:47.490Z,82.50
2023-01-03T09:23:25.746Z,82.40
2023-01-03T09:25:56.267Z,82.40
2023-01-03T09:28:28.114Z,82.20
2023-01-03T09:30:58.107Z,81.90
2023-01-03T09:33:36.446Z,82.00
2023-01-03T09:36:07.176Z,82.00
2023-01-03T09:38:40.059Z,81.90
2023-01-03T09:41:17.027Z,81.80
2023-01-03T09:43:52.855Z,81.80
2023-01-03T09:46:26.369Z,81.70
2023-01-03T09:48:56.740Z,81.70
2023-01-03T09:51:47.260Z,81.60
2023-01-03T09:54:42.951Z,81.50
2023-01-03T09:57:38.453Z,81.40
2023-01-03T10:00:31.196Z,81.40
2023-01-03T10:03:36.079Z,81.40
2023-01-03T10:06:18.686Z,81.20
2023-01-03T10:09:03.895Z,81.10
2023-01-03T10:11:51.435Z,81.00
2023-01-03T10:14:36.034Z,81.00
2023-01-03T10:17:19.260Z,81.10
2023-01-03T10:20:11.209Z,81.00
2023-01-03T10:22:41.972Z,81.10
2023-01-03T10:25:19.424Z,81.10
2023-01-03T10:27:52.031Z,81.00
2023-01-03T10:30:33.356Z,81.10
2023-01-03T10:33:28.775Z,81.10
2023-01-03T10:36:00.098Z,81.20
2023-01-03T10:38:46.459Z,81.20
2023-01-03T10:41:31.018Z,81.20
2023-01-03T10:44:08.392Z,81.30
2023-01-03T10:46:54.552Z,81.30
2023-01-03T10:49:27.122Z,81.20
2023-01-03T10:52:03.182Z,81.20
2023-01-03T10:54:48.469Z,81.00
2023-01-03T10:57:37.175Z,80.90
2023-01-03T11:00:28.860Z,80.70
2023-01-03T11:03:05.994Z,80.60
2023-01-03T11:05:39.554Z,80.50
2023-01-03T11:08:39.276Z,80.30
2023-01-03T11:11:28.454Z,80.20
2023-01-03T11:14:18.164Z,80.00
2023-01-03T11:16:58.686Z,79.90
2023-01-03T11:19:37.309Z,79.90
2023-01-03T11:22:12.049Z,79.70
2023-01-03T11:25:16.050Z,79.60
2023-01-03T11:28:16.256Z,79.60
2023-01-03T11:30:57.012Z,79.50
2023-01-03T11:34:04.882Z,79.50
2023-01-03T11:36:48.848Z,79.40
2023-01-03T11:39:36.189Z,79.40
2023-01-03T11:42:36.169Z,79.20
2023-01-03T11:45:49.121Z,78.90
2023-01-03T11:48:43.219Z,79.20
2023-01-03T11:51:20.979Z,79.20
2023-01-03T11:54:05.540Z,79.30
2023-01-03T11:56:37.575Z,79.20
2023-01-03T11:59:40.414Z,79.10
2023-01-03T12:03:09.606Z,79.10
2023-01-03T12:06:16.335Z,78.90
2023-01-03T12:09:13.163Z,78.70
2023-01-03T12:12:07.704Z,78.40
2023-01-03T12:14:45.282Z,78.30
2023-01-03T12:17:25.817Z,78.00
2023-01-03T12:20:00.084Z,78.00
2023-01-03T12:22:53.276Z,77.80
2023-01-03T12:25:26.575Z,77.90
2023-01-03T12:27:59.398Z,77.70
2023-01-03T12:30:38.785Z,77.60
2023-01-03T12:33:17.914Z,77.30
2023-01-03T12:35:51.659Z,77.10
2023-01-03T12:38:28.056Z,77.00
2023-01-03T12:41:00.528Z,76.80
2023-01-03T12:43:34.646Z,76.40
2023-01-03T12:46:12.916Z,76.40
2023-01-03T12:48:52.743Z,76.10
2023-01-03T12:51:22.480Z,76.00
2023-01-03T12:54:02.855Z,75.40
2023-01-03T12:57:07.869Z,75.70
2023-01-03T13:00:17.453Z,75.60
2023-01-03T13:02:50.004Z,75.50
2023-01-03T13:05:24.884Z,75.30
2023-01-03T13:08:02.345Z,75.70
2023-01-03T13:10:36.853Z,75.40
2023-01-03T13:13:06.238Z,75.50
2023-01-03T13:15:37.769Z,75.30
2023-01-03T13:18:34.019Z,75.30
2023-01-03T13:21:02.245Z,75.30
2023-01-03T13:23:36.685Z,75.30
2023-01-03T13:26:24.505Z,75.60
2023-01-03T13:28:53.535Z,75.60
2023-01-03T13:31:39.972Z,76.00
2023-01-03T13:34:43.645Z,76.10
2023-01-03T13:37:22.275Z,76.00
2023-01-03T13:40:19.924Z,75.90
2023-01-03T13:42:50.540Z,75.70
2023-01-03T13:45:55.102Z,75.90
2023-01-03T13:48:42.137Z,75.70
2023-01-03T13:51:40.138Z,75.60
2023-01-03T13:54:28.078Z,75.50
2023-01-03T13:57:03.631Z,75.70
2023-01-03T13:59:42.077Z,75.30
2023-01-03T14:02:55.304Z,75.00
2023-01-03T14:05:54.240Z,74.90
2023-01-03T14:08:35.914Z,74.80
2023-01-03T14:11:34.946Z,74.70
2023-01-03T14:14:07.472Z,74.60
2023-01-03T14:16:47.572Z,74.30
2023-01-03T14:19:21.728Z,74.20
2023-01-03T14:21:55.008Z,74.20
2023-01-03T14:24:27.584Z,74.50
2023-01-03T14:26:57.063Z,74.40
2023-01-03T14:29:27.565Z,74.20
2023-01-03T14:32:00.238Z,74.10
2023-01-03T14:34:37.915Z,74.10
2023-01-03T14:37:12.818Z,74.30
2023-01-03T14:39:41.007Z,74.40
2023-01-03T14:42:17.465Z,74.50
2023-01-03T14:44:51.652Z,74.70
2023-01-03T14:47:21.234Z,74.80
2023-01-03T14:49:52.706Z,74.90
2023-01-03T14:52:29.693Z,75.10
2023-01-03T14:55:03.950Z,75.20
2023-01-03T14:57:33.281Z,75.30
2023-01-03T15:00:02.211Z,75.40
2023-01-03T15:02:38.681Z,75.60
2023-01-03T15:05:24.592Z,75.90
2023-01-03T15:07:53.546Z,76.00
2023-01-03T15:10:30.428Z,76.10
2023-01-03T15:13:04.664Z,76.30
2023-01-03T15:15:38.236Z,76.40
2023-01-03T15:18:10.132Z,76.60
2023-01-03T15:20:40.713Z,76.70
2023-01-03T15:23:23.805Z,76.80
2023-01-03T15:25:53.197Z,77.00
2023-01-03T15:28:27.347Z,77.10
2023-01-03T15:30:59.319Z,77.20
2023-01-03T15:33:33.632Z,77.30
2023-01-03T15:36:10.831Z,77.30
2023-01-03T15:38:45.362Z,77.40
2023-01-03T15:41:42.223Z,77.40
2023-01-03T15:44:10.568Z,77.40
2023-01-03T15:46:39.567Z,77.50
2023-01-03T15:49:12.385Z,77.50
2023-01-03T15:51:40.510Z,77.60
2023-01-03T15:54:13.527Z,77.60
2023-01-03T15:56:48.784Z,77.60
2023-01-03T15:59:25.208Z,77.70
2023-01-03T16:01:54.403Z,77.70
2023-01-03T16:04:25.129Z,77.80
2023-01-03T16:06:53.598Z,77.90
2023-01-03T16:09:22.281Z,77.90
2023-01-03T16:11:56.749Z,77.90
2023-01-03T16:14:34.090Z,77.90
2023-01-03T16:17:02.827Z,77.90
2023-01-03T16:19:33.624Z,78.00
2023-01-03T16:24:53.771Z,78.00
2023-01-03T16:27:25.072Z,78.10
2023-01-03T16:29:53.581Z,78.30
2023-01-03T16:32:23.652Z,78.30
2023-01-03T16:34:53.289Z,78.20
2023-01-03T16:37:21.424Z,78.20
2023-01-03T16:39:49.602Z,78.20
2023-01-03T16:42:18.997Z,78.40
2023-01-03T16:44:48.571Z,78.50
2023-01-03T16:47:20.425Z,78.50
2023-01-03T16:49:54.815Z,78.60
2023-01-03T16:52:28.234Z,78.60
2023-01-03T16:54:56.705Z,78.70
2023-01-03T16:57:24.874Z,78.80
2023-01-03T16:59:52.974Z,78.80
2023-01-03T17:02:21.243Z,78.70
2023-01-03T17:04:49.558Z,78.80
2023-01-03T17:07:23.063Z,78.80
2023-01-03T17:09:52.757Z,78.90
2023-01-03T17:12:23.935Z,78.90
2023-01-03T17:14:52.636Z,79.00
2023-01-03T17:17:22.433Z,79.00
2023-01-03T17:20:06.873Z,79.10
2023-01-03T17:22:36.568Z,79.10
2023-01-03T17:25:05.288Z,79.30
2023-01-03T17:27:33.782Z,79.40
2023-01-03T17:30:04.375Z,79.40
2023-01-03T17:32:32.563Z,79.50
2023-01-03T17:35:02.787Z,79.50
2023-01-03T17:37:45.386Z,79.50
2023-01-03T17:40:29.385Z,79.50
2023-01-03T17:43:01.784Z,79.70
2023-01-03T17:45:50.208Z,79.70
2023-01-03T17:48:35.861Z,79.90
2023-01-03T17:51:04.045Z,80.00
2023-01-03T17:53:32.260Z,80.00
2023-01-03T17:56:01.857Z,80.10
2023-01-03T17:58:33.443Z,80.10
2023-01-03T18:01:01.866Z,80.10
2023-01-03T18:03:31.018Z,80.10
2023-01-03T18:06:08.660Z,80.00
2023-01-03T18:08:36.883Z,79.90
2023-01-03T18:11:07.431Z,80.00
2023-01-03T18:13:38.271Z,80.10
2023-01-03T18:16:07.049Z,80.10
2023-01-03T18:18:35.280Z,80.00
2023-01-03T18:21:03.560Z,80.10
2023-01-03T18:23:34.126Z,80.20
2023-01-03T18:26:04.525Z,80.00
2023-01-03T18:28:34.493Z,79.90
2023-01-03T18:31:02.765Z,79.80
2023-01-03T18:33:30.995Z,79.70
2023-01-03T18:35:59.212Z,79.80
2023-01-03T18:38:30.792Z,79.80
2023-01-03T18:41:04.375Z,79.80
2023-01-03T18:43:34.563Z,79.80
2023-01-03T18:46:04.857Z,79.90
2023-01-03T18:48:33.221Z,80.00
2023-01-03T18:51:01.360Z,79.90
2023-01-03T18:53:32.209Z,80.10
2023-01-03T18:56:00.959Z,80.10
2023-01-03T18:58:35.114Z,80.20
2023-01-03T19:01:03.647Z,80.20
2023-01-03T19:03:33.958Z,80.20
2023-01-03T19:06:03.292Z,80.30
2023-01-03T19:08:34.592Z,80.40
2023-01-03T19:11:07.246Z,80.50
2023-01-03T19:13:51.556Z,80.50
2023-01-03T19:16:21.542Z,80.60
2023-01-03T19:18:50.063Z,80.70
2023-01-03T19:21:19.756Z,80.80
2023-01-03T19:23:52.419Z,80.70
2023-01-03T19:26:27.075Z,80.80
2023-01-03T19:29:00.232Z,80.60
2023-01-03T19:31:30.722Z,80.60
2023-01-03T19:33:59.052Z,80.60
2023-01-03T19:36:27.262Z,80.60
2023-01-03T19:38:55.498Z,80.70
2023-01-03T19:41:23.758Z,80.60
2023-01-03T19:43:51.968Z,80.70
2023-01-03T19:46:21.599Z,80.60
2023-01-03T19:48:49.852Z,80.60
2023-01-03T19:51:18.094Z,80.60
2023-01-03T19:53:46.254Z,80.60
2023-01-03T19:56:23.657Z,80.70
2023-01-03T19:58:54.488Z,80.70
2023-01-03T20:01:27.517Z,80.70
2023-01-03T20:03:56.143Z,80.80
2023-01-03T20:06:24.580Z,80.70
2023-01-03T20:08:53.988Z,80.70
2023-01-03T20:11:24.223Z,80.90
2023-01-03T20:13:52.595Z,80.80
2023-01-03T20:16:21.026Z,80.90
2023-01-03T20:18:50.730Z,80.80
2023-01-03T20:21:23.309Z,80.90
2023-01-03T20:23:54.643Z,80.90
2023-01-03T20:26:25.173Z,80.80
2023-01-03T20:28:56.700Z,80.70
2023-01-03T20:31:24.996Z,80.70
2023-01-03T20:33:54.576Z,80.70
2023-01-03T20:36:25.108Z,80.70
2023-01-03T20:38:55.820Z,80.70
2023-01-03T20:41:36.091Z,80.80
2023-01-03T20:44:05.274Z,80.90
2023-01-03T20:46:33.898Z,80.90
2023-01-03T20:49:05.477Z,80.90
2023-01-03T20:51:35.107Z,80.90
2023-01-03T20:54:03.263Z,80.90
2023-01-03T20:56:33.365Z,80.90
2023-01-03T20:59:01.578Z,80.90
2023-01-03T21:01:32.551Z,80.90
2023-01-03T21:04:03.242Z,80.90
2023-01-03T21:06:39.496Z,80.90
2023-01-03T21:09:16.975Z,81.00
2023-01-03T21:11:47.112Z,80.90
2023-01-03T21:14:16.528Z,80.90
2023-01-03T21:16:47.584Z,80.90
2023-01-03T21:19:21.143Z,80.90
2023-01-03T21:21:51.981Z,81.00
2023-01-03T21:24:22.074Z,81.00
2023-01-03T21:26:53.549Z,81.00
2023-01-03T21:29:22.149Z,80.90
2023-01-03T21:31:53.770Z,80.90
2023-01-03T21:34:37.684Z,81.00
2023-01-03T21:37:09.483Z,81.10
2023-01-03T21:39:38.298Z,81.00
2023-01-03T21:42:27.669Z,81.00
2023-01-03T21:45:10.742Z,81.10
2023-01-03T21:47:38.938Z,81.00
2023-01-03T21:50:10.884Z,81.00
2023-01-03T21:52:40.926Z,81.00
2023-01-03T21:55:10.146Z,81.10
2023-01-03T21:57:38.751Z,81.10
2023-01-03T22:00:07.713Z,81.10
2023-01-03T22:02:59.674Z,81.10
2023-01-03T22:05:30.905Z,81.10
2023-01-03T22:07:59.065Z,81.10
2023-01-03T22:10:27.563Z,81.10
2023-01-03T22:13:00.446Z,81.10
2023-01-03T22:15:28.925Z,81.20
2023-01-03T22:17:57.441Z,81.20
2023-01-03T22:20:29.043Z,81.20
2023-01-03T22:23:03.948Z,81.20
2023-01-03T22:25:32.135Z,81.20
2023-01-03T22:28:00.291Z,81.10
2023-01-03T22:30:28.843Z,81.10
2023-01-03T22:32:57.751Z,81.00
2023-01-03T22:35:26.055Z,81.10
2023-01-03T22:37:59.283Z,81.10
2023-01-03T22:40:28.932Z,81.10
2023-01-03T22:42:57.130Z,81.00
2023-01-03T22:45:25.475Z,81.10
2023-01-03T22:47:53.602Z,81.00
2023-01-03T22:50:21.888Z,81.00
2023-01-03T22:52:50.057Z,81.10
2023-01-03T22:55:18.303Z,81.10
2023-01-03T22:57:47.912Z,81.10
2023-01-03T23:00:16.947Z,81.20
2023-01-03T23:02:45.183Z,81.20
2023-01-03T23:05:13.423Z,81.30
2023-01-03T23:07:44.810Z,81.20
2023-01-03T23:10:13.228Z,81.30
2023-01-03T23:12:58.163Z,81.30
2023-01-03T23:15:29.680Z,81.40
2023-01-03T23:17:58.741Z,81.30
2023-01-03T23:20:29.974Z,81.30
2023-01-03T23:23:03.014Z,81.30
2023-01-03T23:25:33.070Z,81.30
2023-01-03T23:28:01.257Z,81.40
2023-01-03T23:30:31.257Z,81.30
2023-01-03T23:32:59.887Z,81.40
2023-01-03T23:35:28.028Z,81.40
2023-01-03T23:37:57.729Z,81.40
2023-01-03T23:40:25.962Z,81.30
2023-01-03T23:42:54.124Z,81.20
2023-01-03T23:45:22.303Z,81.20
2023-01-03T23:47:52.181Z,81.30
2023-01-03T23:50:20.289Z,81.20
2023-01-03T23:52:48.446Z,81.30
2023-01-03T23:55:16.711Z,81.10
2023-01-03T23:57:45.010Z,81.20
